Terminal Aerodrome Forecast
Issued by NWS

Home | Current Version | Previous Version | Text Only | Print | Product List | Glossary On
Versions: 1 2 3 4 5 6 7 8 9 10 11 12 13 14 15 16 17 18 19 20 21 22 23 24 25 26 27 28 29 30 31 32 33
000
FTAK31 PANC 190540
TAFAIL
TAF
PAIL 190540Z 1906/2006 08018G30KT P6SM VCSH BKN050
      TEMPO 1906/1908 -SHRA BKN020 BKN030
     FM192000 10015G20KT P6SM -SHRA BKN030 BKN050
     FM200000 20015G25KT P6SM -SHRASN BKN020 BKN040=

USA.gov is the U.S. government's official web portal to all federal, state and local government web resources and services.